createdAt,value
2023-04-15T00:00:58.508Z,1.84
2023-04-15T00:03:25.608Z,1.85
2023-04-15T00:05:52.315Z,1.87
2023-04-15T00:08:19.521Z,1.82
2023-04-15T00:10:46.845Z,1.80
2023-04-15T00:13:13.539Z,1.73
2023-04-15T00:15:40.105Z,1.68
2023-04-15T00:18:08.308Z,1.66
2023-04-15T00:20:35.328Z,1.62
2023-04-15T00:23:02.637Z,1.59
2023-04-15T00:25:29.381Z,1.58
2023-04-15T00:27:55.921Z,1.59
2023-04-15T00:30:23.931Z,1.56
2023-04-15T00:32:50.993Z,1.63
2023-04-15T00:35:18.288Z,1.63
2023-04-15T00:37:46.297Z,1.65
2023-04-15T00:40:13.881Z,1.64
2023-04-15T00:42:40.948Z,1.61
2023-04-15T00:45:08.869Z,1.67
2023-04-15T00:47:37.352Z,1.62
2023-04-15T00:50:04.084Z,1.54
2023-04-15T00:52:30.876Z,1.44
2023-04-15T00:54:57.753Z,1.41
2023-04-15T00:57:24.519Z,1.42
2023-04-15T00:59:52.663Z,1.41
2023-04-15T01:02:19.480Z,1.43
2023-04-15T01:04:46.080Z,1.47
2023-04-15T01:07:12.645Z,1.51
2023-04-15T01:09:39.245Z,1.53
2023-04-15T01:12:06.044Z,1.53
2023-04-15T01:14:33.705Z,1.45
2023-04-15T01:17:00.921Z,1.39
2023-04-15T01:19:27.686Z,1.30
2023-04-15T01:21:54.413Z,1.27
2023-04-15T01:24:21.381Z,1.24
2023-04-15T01:26:50.019Z,1.19
2023-04-15T01:29:16.655Z,1.13
2023-04-15T01:31:50.858Z,1.11
2023-04-15T01:34:36.167Z,1.11
2023-04-15T01:37:21.669Z,1.12
2023-04-15T01:39:48.212Z,1.12
2023-04-15T01:42:14.764Z,1.08
2023-04-15T01:44:42.608Z,1.03
2023-04-15T01:47:10.582Z,1.05
2023-04-15T01:49:38.388Z,1.07
2023-04-15T01:52:06.368Z,1.05
2023-04-15T01:54:34.212Z,1.03
2023-04-15T01:57:02.333Z,1.03
2023-04-15T01:59:31.393Z,1.04
2023-04-15T02:02:00.053Z,1.10
2023-04-15T02:04:28.106Z,1.06
2023-04-15T02:06:56.873Z,1.09
2023-04-15T02:09:24.993Z,1.08
2023-04-15T02:11:54.375Z,1.06
2023-04-15T02:14:22.321Z,0.95
2023-04-15T02:16:50.161Z,0.89
2023-04-15T02:19:18.286Z,0.87
2023-04-15T02:21:46.434Z,0.85
2023-04-15T02:24:14.254Z,0.86
2023-04-15T02:26:42.075Z,0.88
2023-04-15T02:29:09.930Z,0.86
2023-04-15T02:31:40.629Z,0.86
2023-04-15T02:34:08.545Z,0.80
2023-04-15T02:36:36.372Z,0.77
2023-04-15T02:39:04.443Z,0.81
2023-04-15T02:41:32.306Z,0.82
2023-04-15T02:44:00.152Z,0.77
2023-04-15T02:46:28.035Z,0.71
2023-04-15T02:48:55.909Z,0.67
2023-04-15T02:51:23.787Z,0.67
2023-04-15T02:53:51.759Z,0.64
2023-04-15T02:56:19.882Z,0.61
2023-04-15T02:58:50.618Z,0.66
2023-04-15T03:01:18.658Z,0.64
2023-04-15T03:03:46.921Z,0.59
2023-04-15T03:06:14.968Z,0.59
2023-04-15T03:08:42.841Z,0.60
2023-04-15T03:11:10.666Z,0.68
2023-04-15T03:13:39.596Z,0.77
2023-04-15T03:16:07.652Z,0.82
2023-04-15T03:18:35.657Z,0.87
2023-04-15T03:21:03.860Z,0.88
2023-04-15T03:23:32.090Z,0.85
2023-04-15T03:26:02.156Z,0.80
2023-04-15T03:28:30.406Z,0.77
2023-04-15T03:30:59.028Z,0.78
2023-04-15T03:33:26.912Z,0.85
2023-04-15T03:35:54.764Z,0.88
2023-04-15T03:38:22.567Z,0.94
2023-04-15T03:40:50.397Z,0.98
2023-04-15T03:43:18.279Z,1.01
2023-04-15T03:45:46.114Z,0.98
2023-04-15T03:48:17.812Z,0.95
2023-04-15T03:50:46.319Z,0.92
2023-04-15T03:53:14.261Z,0.93
2023-04-15T03:55:42.032Z,0.95
2023-04-15T03:58:12.939Z,0.93
2023-04-15T04:00:41.548Z,0.89
2023-04-15T04:03:09.721Z,0.88
2023-04-15T04:05:39.112Z,0.93
2023-04-15T04:08:07.183Z,0.95
2023-04-15T04:10:35.165Z,0.94
2023-04-15T04:13:03.000Z,0.98
2023-04-15T04:15:31.144Z,0.98
2023-04-15T04:17:59.118Z,1.08
2023-04-15T04:20:26.930Z,1.25
2023-04-15T04:22:54.720Z,1.28
2023-04-15T04:25:22.644Z,1.27
2023-04-15T04:27:50.526Z,1.30
2023-04-15T04:30:18.351Z,1.26
2023-04-15T04:32:46.240Z,1.26
2023-04-15T04:35:14.646Z,1.28
2023-04-15T04:37:42.676Z,1.26
2023-04-15T04:40:10.799Z,1.24
2023-04-15T04:42:40.045Z,1.35
2023-04-15T04:45:08.750Z,1.50
2023-04-15T04:47:36.765Z,1.62
2023-04-15T04:50:04.799Z,1.68
2023-04-15T04:52:32.623Z,1.62
2023-04-15T04:55:00.448Z,1.52
2023-04-15T04:57:28.283Z,1.49
2023-04-15T04:59:56.089Z,1.47
2023-04-15T05:02:24.062Z,1.44
2023-04-15T05:04:54.474Z,1.50
2023-04-15T05:07:22.362Z,1.61
2023-04-15T05:09:50.221Z,1.59
2023-04-15T05:12:18.391Z,1.53
2023-04-15T05:14:46.893Z,1.49
2023-04-15T05:17:15.321Z,1.51
2023-04-15T05:19:43.112Z,1.51
2023-04-15T05:22:11.008Z,1.52
2023-04-15T05:24:38.810Z,1.56
2023-04-15T05:27:08.522Z,1.63
2023-04-15T05:29:36.617Z,1.70
2023-04-15T05:32:04.564Z,1.76
2023-04-15T05:34:32.396Z,1.79
2023-04-15T05:37:00.747Z,1.82
2023-04-15T05:39:28.608Z,1.90
2023-04-15T05:41:57.733Z,2.06
2023-04-15T05:44:26.888Z,2.15
2023-04-15T05:46:54.785Z,2.14
2023-04-15T05:49:22.643Z,2.09
2023-04-15T05:51:50.671Z,2.17
2023-04-15T05:54:20.311Z,2.30
2023-04-15T05:56:48.303Z,2.40
2023-04-15T05:59:16.127Z,2.44
2023-04-15T06:01:44.085Z,2.56
2023-04-15T06:04:12.285Z,2.69
2023-04-15T06:06:40.648Z,2.78
2023-04-15T06:09:08.481Z,2.86
2023-04-15T06:11:36.354Z,2.93
2023-04-15T06:14:04.185Z,2.92
2023-04-15T06:16:32.322Z,2.97
2023-04-15T06:19:00.439Z,2.97
2023-04-15T06:21:28.345Z,2.93
2023-04-15T06:23:56.836Z,2.89
2023-04-15T06:26:27.996Z,2.92
2023-04-15T06:28:55.795Z,2.97
2023-04-15T06:31:23.660Z,3.02
2023-04-15T06:33:51.679Z,3.10
2023-04-15T06:36:19.576Z,3.18
2023-04-15T06:38:47.568Z,3.27
2023-04-15T06:41:15.821Z,3.30
2023-04-15T06:43:43.744Z,3.31
2023-04-15T06:46:11.584Z,3.30
2023-04-15T06:48:39.506Z,3.37
2023-04-15T06:51:07.357Z,3.46
2023-04-15T06:53:35.672Z,3.55
2023-04-15T06:56:03.510Z,3.62
2023-04-15T06:58:31.463Z,3.68
2023-04-15T07:00:59.285Z,3.76
2023-04-15T07:03:27.261Z,3.80
2023-04-15T07:05:55.051Z,3.82
2023-04-15T07:08:23.171Z,3.89
2023-04-15T07:10:51.788Z,4.00
2023-04-15T07:13:19.653Z,4.09
2023-04-15T07:15:47.502Z,4.18
2023-04-15T07:18:15.484Z,4.16
2023-04-15T07:20:43.694Z,4.18
2023-04-15T07:23:11.985Z,4.24
2023-04-15T07:25:39.868Z,4.29
2023-04-15T07:28:07.672Z,4.27
2023-04-15T07:30:35.771Z,4.24
2023-04-15T07:33:03.939Z,4.29
2023-04-15T07:35:31.978Z,4.37
2023-04-15T07:37:59.788Z,4.44
2023-04-15T07:40:28.313Z,4.56
2023-04-15T07:42:57.318Z,4.62
2023-04-15T07:45:25.163Z,4.72
2023-04-15T07:47:53.086Z,4.85
2023-04-15T07:50:21.117Z,4.94
2023-04-15T07:52:49.174Z,5.04
2023-04-15T07:55:19.482Z,5.02
2023-04-15T07:57:47.541Z,5.01
2023-04-15T08:00:16.264Z,5.10
2023-04-15T08:02:44.379Z,5.18
2023-04-15T08:05:13.178Z,5.27
2023-04-15T08:07:41.349Z,5.30
2023-04-15T08:10:10.101Z,5.45
2023-04-15T08:12:38.284Z,5.64
2023-04-15T08:15:08.162Z,5.72
2023-04-15T08:17:36.121Z,5.81
2023-04-15T08:20:05.887Z,5.79
2023-04-15T08:22:34.485Z,5.78
2023-04-15T08:25:02.429Z,5.90
2023-04-15T08:27:30.297Z,6.03
2023-04-15T08:29:58.572Z,6.12
2023-04-15T08:32:27.259Z,6.19
2023-04-15T08:34:55.094Z,6.31
2023-04-15T08:37:23.062Z,6.53
2023-04-15T08:39:50.920Z,6.73
2023-04-15T08:42:23.434Z,6.83
2023-04-15T08:44:51.785Z,6.93
2023-04-15T08:47:21.770Z,7.03
2023-04-15T08:49:53.945Z,7.09
2023-04-15T08:52:22.676Z,7.24
2023-04-15T08:54:50.600Z,7.30
2023-04-15T08:57:18.742Z,7.35
2023-04-15T08:59:47.328Z,7.27
2023-04-15T09:02:15.415Z,7.20
2023-04-15T09:04:43.370Z,7.21
2023-04-15T09:07:11.516Z,7.32
2023-04-15T09:09:40.326Z,7.48
2023-04-15T09:12:08.510Z,7.57
2023-04-15T09:14:36.432Z,7.66
2023-04-15T09:17:04.930Z,7.79
2023-04-15T09:19:34.587Z,7.83
2023-04-15T09:22:02.430Z,7.94
2023-04-15T09:24:38.260Z,8.13
2023-04-15T09:27:06.488Z,8.27
2023-04-15T09:29:34.586Z,8.42
2023-04-15T09:32:12.902Z,8.51
2023-04-15T09:34:40.757Z,8.58
2023-04-15T09:37:11.040Z,8.67
2023-04-15T09:39:52.526Z,8.78
2023-04-15T09:42:26.967Z,8.83
2023-04-15T09:44:55.108Z,8.90
2023-04-15T09:47:32.675Z,8.88
2023-04-15T09:50:01.604Z,8.84
2023-04-15T09:52:30.037Z,8.74
2023-04-15T09:54:58.712Z,8.71
2023-04-15T09:57:33.709Z,8.76
2023-04-15T10:00:01.564Z,8.79
2023-04-15T10:02:30.599Z,8.82
2023-04-15T10:04:59.613Z,8.92
2023-04-15T10:07:27.790Z,9.12
2023-04-15T10:09:56.195Z,9.28
2023-04-15T10:12:24.408Z,9.44
2023-04-15T10:15:05.125Z,9.51
2023-04-15T10:17:37.250Z,9.67
2023-04-15T10:20:05.603Z,9.87
2023-04-15T10:22:33.596Z,10.21
2023-04-15T10:25:02.930Z,10.60
2023-04-15T10:27:31.145Z,10.97
2023-04-15T10:30:00.521Z,11.34
2023-04-15T10:32:28.441Z,11.77
2023-04-15T10:34:56.945Z,12.18
2023-04-15T10:37:36.061Z,12.56
2023-04-15T10:40:24.094Z,12.72
2023-04-15T10:42:51.986Z,13.01
2023-04-15T10:45:19.921Z,13.39
2023-04-15T10:47:52.019Z,13.73
2023-04-15T10:50:20.125Z,13.82
2023-04-15T10:52:50.682Z,13.89
2023-04-15T10:55:22.695Z,14.29
2023-04-15T10:57:54.419Z,14.67
2023-04-15T11:00:25.744Z,14.98
2023-04-15T11:02:56.507Z,15.31
2023-04-15T11:05:39.592Z,15.73
2023-04-15T11:08:08.863Z,16.09
2023-04-15T11:10:56.974Z,16.41
2023-04-15T11:13:27.194Z,16.78
2023-04-15T11:15:58.583Z,17.21
2023-04-15T11:18:28.514Z,17.65
2023-04-15T11:20:57.639Z,17.92
2023-04-15T11:23:30.008Z,18.16
2023-04-15T11:25:59.377Z,18.54
2023-04-15T11:28:28.196Z,18.58
2023-04-15T11:30:56.427Z,18.65
2023-04-15T11:33:25.440Z,18.86
2023-04-15T11:35:54.378Z,18.77
2023-04-15T11:38:22.812Z,18.64
2023-04-15T11:40:51.441Z,18.67
2023-04-15T11:43:23.109Z,18.66
2023-04-15T11:45:55.920Z,18.89
2023-04-15T11:48:26.615Z,19.24
2023-04-15T11:51:00.751Z,19.47
2023-04-15T11:53:41.306Z,19.46
2023-04-15T11:56:09.435Z,19.24
2023-04-15T11:58:39.668Z,19.20
2023-04-15T12:01:06.879Z,19.12
2023-04-15T12:03:39.410Z,19.11
2023-04-15T12:06:21.113Z,19.11
2023-04-15T12:09:06.349Z,19.05
2023-04-15T12:11:32.937Z,18.85
2023-04-15T12:13:59.506Z,18.62
2023-04-15T12:16:27.993Z,18.18
2023-04-15T12:18:59.005Z,17.94
2023-04-15T12:21:35.822Z,17.83
2023-04-15T12:24:03.710Z,17.43
2023-04-15T12:26:32.184Z,17.33
2023-04-15T12:29:17.443Z,17.35
2023-04-15T12:31:47.708Z,17.19
2023-04-15T12:34:14.595Z,17.19
2023-04-15T12:36:41.244Z,17.54
2023-04-15T12:39:07.881Z,17.56
2023-04-15T12:41:34.439Z,17.51
2023-04-15T12:44:01.057Z,17.39
2023-04-15T12:46:27.778Z,17.33
2023-04-15T12:48:54.597Z,17.33
2023-04-15T12:51:24.001Z,17.26
2023-04-15T12:53:51.050Z,17.29
2023-04-15T12:56:18.192Z,17.17
2023-04-15T12:58:44.839Z,16.96
2023-04-15T13:01:11.683Z,17.03
2023-04-15T13:03:38.634Z,17.09
2023-04-15T13:06:06.017Z,17.18
2023-04-15T13:08:32.876Z,17.20
2023-04-15T13:10:59.528Z,17.24
2023-04-15T13:13:26.554Z,17.24
2023-04-15T13:15:53.300Z,17.22
2023-04-15T13:18:20.101Z,17.02
2023-04-15T13:20:46.650Z,16.80
2023-04-15T13:23:13.462Z,16.67
2023-04-15T13:25:40.091Z,16.56
2023-04-15T13:28:06.675Z,16.44
2023-04-15T13:30:33.270Z,16.43
2023-04-15T13:32:59.987Z,16.22
2023-04-15T13:35:26.656Z,16.05
2023-04-15T13:37:54.113Z,15.96
2023-04-15T13:40:20.908Z,15.93
2023-04-15T13:42:47.508Z,15.94
2023-04-15T13:45:14.062Z,15.83
2023-04-15T13:47:40.680Z,15.91
2023-04-15T13:50:07.532Z,15.77
2023-04-15T13:52:34.096Z,15.62
2023-04-15T13:55:18.048Z,15.43
2023-04-15T13:57:46.643Z,15.12
2023-04-15T14:00:14.035Z,14.70
2023-04-15T14:02:40.959Z,14.52
2023-04-15T14:05:07.878Z,14.41
2023-04-15T14:07:34.465Z,14.31
2023-04-15T14:10:01.064Z,14.38
2023-04-15T14:12:27.713Z,14.42
2023-04-15T14:14:54.273Z,14.54
2023-04-15T14:17:21.198Z,14.78
2023-04-15T14:19:47.839Z,15.06
2023-04-15T14:22:14.397Z,15.29
2023-04-15T14:24:41.092Z,15.49
2023-04-15T14:27:08.773Z,15.65
2023-04-15T14:29:35.456Z,15.84
2023-04-15T14:32:11.159Z,15.93
2023-04-15T14:34:39.531Z,15.71
2023-04-15T14:37:06.287Z,15.43
2023-04-15T14:39:32.866Z,15.34
2023-04-15T14:41:59.437Z,15.37
2023-04-15T14:44:25.991Z,15.41
2023-04-15T14:46:52.741Z,15.54
2023-04-15T14:49:19.788Z,15.83
2023-04-15T14:51:46.531Z,16.04
2023-04-15T14:54:13.126Z,16.09
2023-04-15T14:56:39.682Z,16.01
2023-04-15T14:59:06.298Z,15.93
2023-04-15T15:01:33.591Z,15.75
2023-04-15T15:04:00.516Z,15.43
2023-04-15T15:06:27.849Z,15.11
2023-04-15T15:08:54.463Z,14.78
2023-04-15T15:11:21.101Z,14.29
2023-04-15T15:13:47.656Z,13.79
2023-04-15T15:16:14.730Z,13.30
2023-04-15T15:18:41.459Z,12.78
2023-04-15T15:21:08.065Z,12.35
2023-04-15T15:23:34.683Z,12.05
2023-04-15T15:26:01.320Z,11.75
2023-04-15T15:28:27.834Z,11.51
2023-04-15T15:30:54.779Z,11.27
2023-04-15T15:33:21.647Z,11.11
2023-04-15T15:35:48.224Z,10.95
2023-04-15T15:38:14.966Z,10.73
2023-04-15T15:40:41.539Z,10.52
2023-04-15T15:43:08.127Z,10.39
2023-04-15T15:45:35.435Z,10.29
2023-04-15T15:48:03.477Z,10.15
2023-04-15T15:50:30.093Z,10.02
2023-04-15T15:52:58.629Z,9.90
2023-04-15T15:55:27.112Z,9.79
2023-04-15T15:57:54.361Z,9.71
2023-04-15T16:00:21.664Z,9.66
2023-04-15T16:03:06.066Z,9.64
2023-04-15T16:05:34.253Z,9.60
2023-04-15T16:08:00.969Z,9.57
2023-04-15T16:10:27.871Z,9.51
2023-04-15T16:12:54.485Z,9.42
2023-04-15T16:15:21.099Z,9.33
2023-04-15T16:17:47.718Z,9.25
2023-04-15T16:20:14.410Z,9.20
2023-04-15T16:22:41.260Z,9.18
2023-04-15T16:25:07.962Z,9.20
2023-04-15T16:27:38.517Z,9.16
2023-04-15T16:30:13.490Z,9.13
2023-04-15T16:32:40.301Z,9.07
2023-04-15T16:35:07.292Z,9.08
2023-04-15T16:37:34.593Z,9.03
2023-04-15T16:40:01.171Z,8.95
2023-04-15T16:42:27.706Z,8.90
2023-04-15T16:44:56.214Z,8.82
2023-04-15T16:47:22.836Z,8.78
2023-04-15T16:49:49.875Z,8.79
2023-04-15T16:52:16.438Z,8.72
2023-04-15T16:54:42.982Z,8.64
2023-04-15T16:57:09.613Z,8.54
2023-04-15T16:59:36.271Z,8.45
2023-04-15T17:02:03.011Z,8.38
2023-04-15T17:04:30.039Z,8.33
2023-04-15T17:06:56.733Z,8.28
2023-04-15T17:09:23.429Z,8.24
2023-04-15T17:11:49.986Z,8.18
2023-04-15T17:14:16.566Z,8.15
2023-04-15T17:16:43.357Z,8.14
2023-04-15T17:19:10.432Z,8.12
2023-04-15T17:21:44.364Z,8.11
2023-04-15T17:24:18.665Z,8.10
2023-04-15T17:26:50.924Z,8.08
2023-04-15T17:29:17.967Z,8.04
2023-04-15T17:31:48.392Z,8.01
2023-04-15T17:34:49.769Z,7.96
2023-04-15T17:37:37.775Z,7.89
2023-04-15T17:40:24.367Z,7.82
2023-04-15T17:43:10.896Z,7.79
2023-04-15T17:45:58.643Z,7.77
2023-04-15T17:48:46.093Z,7.75
2023-04-15T17:51:32.870Z,7.72
2023-04-15T17:54:19.400Z,7.70
2023-04-15T17:57:06.348Z,7.67
2023-04-15T17:59:52.919Z,7.65
2023-04-15T18:02:39.832Z,7.63
2023-04-15T18:05:26.625Z,7.64
2023-04-15T18:08:13.214Z,7.65
2023-04-15T18:10:59.758Z,7.63
2023-04-15T18:13:46.291Z,7.61
2023-04-15T18:16:32.923Z,7.61
2023-04-15T18:19:19.566Z,7.61
2023-04-15T18:21:46.292Z,7.59
2023-04-15T18:24:13.093Z,7.56
2023-04-15T18:26:39.863Z,7.56
2023-04-15T18:29:06.656Z,7.56
2023-04-15T18:31:33.507Z,7.58
2023-04-15T18:34:00.210Z,7.56
2023-04-15T18:36:27.017Z,7.52
2023-04-15T18:38:53.766Z,7.52
2023-04-15T18:41:20.630Z,7.52
2023-04-15T18:43:47.440Z,7.54
2023-04-15T18:46:14.701Z,7.54
2023-04-15T18:48:41.485Z,7.54
2023-04-15T18:51:08.423Z,7.51
2023-04-15T18:53:35.509Z,7.48
2023-04-15T18:56:03.737Z,7.45
2023-04-15T18:59:08.492Z,7.42
2023-04-15T19:01:17.925Z,7.33
2023-04-15T19:03:45.212Z,7.27
2023-04-15T19:06:11.890Z,7.29
2023-04-15T19:08:38.561Z,7.29
2023-04-15T19:11:05.165Z,7.24
2023-04-15T19:13:31.723Z,7.20
2023-04-15T19:15:58.377Z,7.17
2023-04-15T19:18:24.943Z,7.13
2023-04-15T19:20:52.751Z,7.08
2023-04-15T19:23:19.414Z,7.06
2023-04-15T19:25:46.102Z,7.06
2023-04-15T19:28:12.728Z,7.04
2023-04-15T19:30:39.754Z,7.05
2023-04-15T19:33:06.414Z,7.04
2023-04-15T19:35:33.250Z,6.98
2023-04-15T19:37:59.844Z,6.92
2023-04-15T19:40:26.726Z,6.85
2023-04-15T19:42:53.369Z,6.77
2023-04-15T19:45:20.027Z,6.77
2023-04-15T19:47:46.840Z,6.80
2023-04-15T19:50:13.436Z,6.74
2023-04-15T19:52:40.033Z,6.65
2023-04-15T19:55:06.710Z,6.64
2023-04-15T19:57:33.998Z,6.61
2023-04-15T20:00:00.798Z,6.57
2023-04-15T20:02:29.109Z,6.53
2023-04-15T20:04:55.895Z,6.49
2023-04-15T20:07:22.507Z,6.44
2023-04-15T20:09:49.174Z,6.41
2023-04-15T20:12:49.808Z,6.44
2023-04-15T20:15:03.456Z,6.43
2023-04-15T20:17:32.606Z,6.41
2023-04-15T20:19:59.192Z,6.38
2023-04-15T20:22:25.801Z,6.38
2023-04-15T20:24:52.520Z,6.35
2023-04-15T20:27:20.363Z,6.34
2023-04-15T20:29:47.006Z,6.35
2023-04-15T20:32:13.623Z,6.38
2023-04-15T20:34:40.576Z,6.38
2023-04-15T20:37:07.484Z,6.35
2023-04-15T20:39:34.400Z,6.29
2023-04-15T20:42:01.662Z,6.35
2023-04-15T20:44:28.337Z,6.34
2023-04-15T20:46:55.069Z,6.34
2023-04-15T20:49:21.743Z,6.30
2023-04-15T20:51:49.287Z,6.22
2023-04-15T20:54:16.210Z,6.16
2023-04-15T20:56:42.801Z,6.11
2023-04-15T20:59:09.383Z,6.12
2023-04-15T21:01:36.035Z,6.07
2023-04-15T21:04:02.975Z,6.08
2023-04-15T21:06:29.610Z,6.05
2023-04-15T21:08:56.254Z,6.01
2023-04-15T21:11:43.017Z,5.99
2023-04-15T21:14:12.336Z,5.98
2023-04-15T21:16:38.994Z,5.95
2023-04-15T21:19:05.736Z,5.95
2023-04-15T21:21:32.776Z,5.92
2023-04-15T21:23:59.772Z,5.88
2023-04-15T21:26:26.436Z,5.85
2023-04-15T21:28:53.000Z,5.79
2023-04-15T21:31:20.357Z,5.74
2023-04-15T21:33:47.016Z,5.67
2023-04-15T21:36:13.587Z,5.63
2023-04-15T21:38:40.220Z,5.62
2023-04-15T21:41:09.695Z,5.61
2023-04-15T21:43:39.160Z,5.54
2023-04-15T21:46:24.586Z,5.46
2023-04-15T21:48:55.377Z,5.39
2023-04-15T21:51:22.005Z,5.35
2023-04-15T21:53:48.644Z,5.30
2023-04-15T21:56:15.286Z,5.25
2023-04-15T21:58:42.064Z,5.21
2023-04-15T22:01:08.723Z,5.12
2023-04-15T22:03:35.602Z,5.08
2023-04-15T22:06:03.605Z,5.02
2023-04-15T22:08:36.098Z,5.00
2023-04-15T22:11:18.152Z,4.92
2023-04-15T22:13:44.870Z,4.87
2023-04-15T22:16:11.644Z,4.83
2023-04-15T22:18:38.161Z,4.80
2023-04-15T22:21:04.783Z,4.76
2023-04-15T22:23:31.397Z,4.71
2023-04-15T22:25:59.290Z,4.69
2023-04-15T22:28:25.833Z,4.65
2023-04-15T22:30:54.572Z,4.63
2023-04-15T22:33:21.259Z,4.63
2023-04-15T22:35:47.893Z,4.60
2023-04-15T22:38:14.420Z,4.58
2023-04-15T22:40:41.077Z,4.56
2023-04-15T22:43:07.832Z,4.55
2023-04-15T22:45:34.381Z,4.50
2023-04-15T22:48:01.205Z,4.47
2023-04-15T22:50:27.931Z,4.45
2023-04-15T22:52:54.509Z,4.41
2023-04-15T22:55:21.319Z,4.39
2023-04-15T22:57:47.854Z,4.40
2023-04-15T23:00:14.507Z,4.41
2023-04-15T23:02:41.237Z,4.40
2023-04-15T23:05:12.849Z,4.40
2023-04-15T23:07:39.770Z,4.38
2023-04-15T23:10:07.018Z,4.36
2023-04-15T23:12:33.611Z,4.32
2023-04-15T23:15:00.547Z,4.32
2023-04-15T23:17:27.286Z,4.32
2023-04-15T23:19:53.947Z,4.32
2023-04-15T23:22:20.484Z,4.31
2023-04-15T23:24:47.060Z,4.28
2023-04-15T23:27:13.616Z,4.25
2023-04-15T23:29:40.234Z,4.21
2023-04-15T23:32:06.755Z,4.18
2023-04-15T23:34:33.356Z,4.13
2023-04-15T23:36:59.867Z,4.09
2023-04-15T23:39:26.511Z,4.05
2023-04-15T23:41:53.249Z,4.04
2023-04-15T23:44:19.839Z,4.01
2023-04-15T23:46:46.478Z,3.98
2023-04-15T23:49:13.132Z,3.98
2023-04-15T23:51:39.663Z,3.95
2023-04-15T23:54:06.234Z,3.94
2023-04-15T23:56:32.808Z,3.90
2023-04-15T23:58:59.391Z,3.87
